Time;durP1;ratioP1;P1;durP2;ratioP2;P2;SDS_P1;SDS_P2;PMS_P1;PMS_P2;Temp;Humidity;BMP_temperature;BMP_pressure;BME280_temperature;BME280_humidity;BME280_pressure;Samples;Min_cycle;Max_cycle;Signal;HPM_P1;HPM_P2
2022/02/03 00:03:36;;;;;;;39.63;15.68;;;;;;;4.89;65.86;100500.75;10463798;28;20045;-64
2022/02/03 00:09:18;;;;;;;40.45;14.65;;;;;;;4.96;65.94;100500.56;10466385;28;20057;-64
2022/02/03 00:30:14;;;;;;;31.13;15.25;;;;;;;5.02;66.08;100486.59;10466651;28;20508;-64
2022/02/03 00:51:09;;;;;;;39.90;14.85;;;;;;;5.21;66.11;100495.50;10472628;28;20493;-64
2022/02/03 00:56:13;;;;;;;41.97;15.90;;;;;;;5.28;65.76;100486.69;10473051;28;20048;-64
2022/02/03 01:01:18;;;;;;;46.33;18.23;;;;;;;5.30;65.63;100470.19;10472257;28;20048;-64
2022/02/03 01:06:22;;;;;;;46.35;18.30;;;;;;;5.11;65.87;100475.94;10470677;28;20070;-65
2022/02/03 01:11:37;;;;;;;58.38;18.08;;;;;;;4.87;66.52;100477.50;10471708;28;20055;-64
2022/02/03 01:53:29;;;;;;;39.25;16.75;;;;;;;5.22;66.55;100451.41;10470545;28;20618;-64
2022/02/03 01:58:46;;;;;;;37.30;16.42;;;;;;;5.19;66.74;100440.25;10468309;28;20089;-64
2022/02/03 02:04:12;;;;;;;40.22;16.85;;;;;;;5.20;66.49;100429.88;10470570;28;20353;-64
2022/02/03 02:09:23;;;;;;;49.30;18.77;;;;;;;5.26;66.57;100434.00;10469451;28;20400;-64
2022/02/03 02:37:36;;;;;;;43.87;17.97;;;;;;;5.03;67.54;100389.75;10466600;28;20049;-64
2022/02/03 02:42:34;;;;;;;41.90;18.00;;;;;;;5.27;67.04;100383.81;10452693;28;20486;-64
2022/02/03 02:47:38;;;;;;;44.25;18.65;;;;;;;5.42;66.70;100373.00;10471047;28;20718;-64
2022/02/03 02:52:50;;;;;;;58.42;20.77;;;;;;;5.41;66.33;100363.53;10471845;28;20481;-64
2022/02/03 03:03:44;;;;;;;43.97;19.13;;;;;;;5.03;66.49;100361.25;10471493;28;20040;-64
2022/02/03 03:40:21;;;;;;;57.17;21.05;;;;;;;4.61;67.35;100329.69;10475876;28;20051;-64
2022/02/03 03:45:24;;;;;;;50.67;20.48;;;;;;;4.68;67.21;100337.25;10470741;28;20094;-64
2022/02/03 03:50:29;;;;;;;63.28;22.17;;;;;;;4.78;67.09;100327.44;10471040;28;20040;-64
2022/02/03 05:11:25;;;;;;;46.80;19.42;;;;;;;5.63;67.61;100273.72;10464548;28;20412;-64
2022/02/03 05:23:12;;;;;;;44.83;20.40;;;;;;;5.02;68.80;100240.34;10464788;28;20520;-64
2022/02/03 05:44:51;;;;;;;37.47;19.23;;;;;;;4.82;69.27;100238.34;10469614;28;20055;-64
2022/02/03 05:50:08;;;;;;;62.45;25.58;;;;;;;4.92;68.91;100231.16;10469635;28;20067;-64
2022/02/03 06:16:38;;;;;;;37.53;17.33;;;;;;;5.33;68.57;100212.50;10468857;28;20408;-64
2022/02/03 06:32:23;;;;;;;30.35;13.63;;;;;;;5.63;67.93;100202.81;10470528;28;20044;-64
2022/02/03 06:37:27;;;;;;;34.00;15.38;;;;;;;5.64;68.04;100196.69;10468626;28;20090;-64
2022/02/03 06:42:29;;;;;;;35.95;15.68;;;;;;;5.60;68.14;100203.75;10472206;28;20098;-64
2022/02/03 06:47:46;;;;;;;38.30;15.75;;;;;;;5.69;68.01;100200.00;10468995;28;20056;-64
2022/02/03 06:53:00;;;;;;;20.30;11.07;;;;;;;5.72;68.29;100195.53;10467583;28;20062;-64
2022/02/03 06:58:19;;;;;;;28.25;13.07;;;;;;;5.83;68.20;100189.97;10468701;28;20052;-64
2022/02/03 07:03:24;;;;;;;31.42;15.50;;;;;;;5.66;68.56;100195.75;10468499;28;20046;-64
2022/02/03 07:08:27;;;;;;;36.28;17.27;;;;;;;5.50;68.71;100197.19;10480330;28;20492;-64
2022/02/03 07:13:29;;;;;;;42.33;19.25;;;;;;;5.50;68.89;100197.19;10464653;28;20070;-64
2022/02/03 07:18:32;;;;;;;34.72;18.20;;;;;;;5.44;69.42;100200.00;10468387;28;20508;-64
2022/02/03 07:23:34;;;;;;;40.15;19.45;;;;;;;5.43;69.32;100193.13;10464705;28;20077;-64
2022/02/03 07:28:36;;;;;;;36.78;16.17;;;;;;;5.53;69.29;100181.53;10467705;28;20064;-64
2022/02/03 07:33:38;;;;;;;31.13;15.13;;;;;;;5.84;69.06;100186.47;10467712;28;20143;-64
2022/02/03 07:38:40;;;;;;;18.48;9.90;;;;;;;6.01;69.13;100171.13;10470967;28;20175;-64
2022/02/03 07:43:42;;;;;;;16.40;9.07;;;;;;;6.23;68.91;100164.19;10469184;28;20132;-64
2022/02/03 07:48:44;;;;;;;30.88;14.18;;;;;;;6.34;68.68;100167.28;10468110;28;20060;-64
2022/02/03 07:53:45;;;;;;;33.17;16.90;;;;;;;6.28;68.54;100176.16;10469186;28;20055;-64
2022/02/03 07:58:47;;;;;;;17.92;9.90;;;;;;;6.28;68.63;100159.72;10468880;28;20525;-64
2022/02/03 08:03:49;;;;;;;16.55;8.43;;;;;;;6.47;68.89;100159.84;10451917;28;20044;-64
2022/02/03 08:09:01;;;;;;;15.25;7.43;;;;;;;6.66;68.70;100140.88;10468835;28;20071;-63
2022/02/03 08:19:18;;;;;;;29.27;15.27;;;;;;;6.52;68.11;100140.56;10461611;28;20044;-63
2022/02/03 08:24:27;;;;;;;34.78;17.42;;;;;;;6.62;68.10;100144.50;10469023;28;22005;-63
2022/02/03 08:29:49;;;;;;;15.40;8.10;;;;;;;6.69;68.24;100139.91;10451167;28;20431;-63
2022/02/03 08:40:08;;;;;;;11.25;5.88;;;;;;;7.00;68.07;100146.38;10469838;28;20192;-63
2022/02/03 08:45:10;;;;;;;13.63;6.88;;;;;;;7.09;67.92;100142.53;10467910;28;20140;-65
2022/02/03 08:50:13;;;;;;;22.70;13.15;;;;;;;7.26;67.65;100116.66;10466672;28;20050;-63
2022/02/03 08:55:39;;;;;;;20.35;11.70;;;;;;;7.53;67.19;100101.59;10466927;28;20818;-64
2022/02/03 09:58:52;;;;;;;6.55;4.03;;;;;;;8.29;65.66;100015.56;10469733;28;20055;-64
2022/02/03 10:04:09;;;;;;;5.38;2.70;;;;;;;8.33;65.25;100020.53;10470928;28;20481;-64
2022/02/03 10:09:11;;;;;;;5.57;2.63;;;;;;;8.42;65.18;100029.69;10473273;28;20056;-65
2022/02/03 10:14:12;;;;;;;3.90;2.50;;;;;;;8.38;65.05;100015.13;10470292;28;20040;-65
2022/02/03 10:25:10;;;;;;;4.15;2.60;;;;;;;8.88;63.98;99989.94;10480774;28;20044;-64
2022/02/03 10:30:26;;;;;;;3.33;2.13;;;;;;;9.17;63.39;99993.63;10467896;28;20048;-64
2022/02/03 10:40:52;;;;;;;4.15;2.30;;;;;;;9.40;62.30;99970.56;10470505;28;20132;-64
2022/02/03 10:51:39;;;;;;;6.82;2.50;;;;;;;9.25;64.93;99955.75;10468617;28;20044;-64
2022/02/03 11:02:45;;;;;;;3.92;2.33;;;;;;;9.89;61.27;99949.63;10448518;28;20056;-66
2022/02/03 11:08:08;;;;;;;4.47;2.72;;;;;;;9.51;61.80;99946.50;10493796;28;20056;-66
2022/02/03 11:13:13;;;;;;;3.88;2.22;;;;;;;9.12;62.34;99939.06;10469091;28;20044;-64
2022/02/03 11:18:16;;;;;;;5.88;3.63;;;;;;;9.02;62.42;99939.63;10469612;28;20136;-65
2022/02/03 11:23:31;;;;;;;3.08;2.00;;;;;;;9.03;62.23;99936.13;10466473;28;20052;-65
2022/02/03 11:50:04;;;;;;;2.70;1.97;;;;;;;9.19;60.55;99897.84;10469617;28;20053;-65
2022/02/03 11:55:43;;;;;;;3.88;2.20;;;;;;;9.30;61.37;99890.28;10468694;28;20590;-65
2022/02/03 12:12:22;;;;;;;2.40;1.67;;;;;;;9.12;60.85;99860.78;10467968;28;20421;-64
2022/02/03 12:17:38;;;;;;;3.80;1.90;;;;;;;9.12;60.64;99845.16;10467982;28;20052;-65
2022/02/03 12:22:57;;;;;;;3.00;2.10;;;;;;;9.11;60.55;99848.69;10464359;28;20051;-65
2022/02/03 12:28:52;;;;;;;3.00;1.90;;;;;;;9.08;60.44;99842.78;10466671;28;20064;-65
2022/02/03 12:38:33;;;;;;;2.85;1.60;;;;;;;8.98;61.13;99823.34;10474302;28;20063;-64
2022/02/03 12:43:38;;;;;;;4.65;2.90;;;;;;;9.04;60.78;99810.81;10475468;28;20139;-64
2022/02/03 12:48:40;;;;;;;1.55;1.10;;;;;;;9.10;60.51;99805.25;10476030;28;20139;-65
2022/02/03 12:53:42;;;;;;;1.98;1.20;;;;;;;9.15;60.28;99798.03;10473851;28;20477;-65
2022/02/03 12:58:47;;;;;;;1.85;1.20;;;;;;;8.95;60.40;99774.81;10473595;28;20560;-64
2022/02/03 13:03:51;;;;;;;1.10;0.90;;;;;;;8.72;60.52;99783.91;10475044;28;20245;-65
2022/02/03 13:08:57;;;;;;;1.30;0.90;;;;;;;8.73;60.49;99782.13;10474670;28;20213;-65
2022/02/03 13:14:24;;;;;;;2.78;1.10;;;;;;;8.70;60.75;99780.53;10475029;28;20055;-65
2022/02/03 13:30:16;;;;;;;1.77;1.00;;;;;;;8.34;60.58;99794.69;10470369;28;20586;-64
2022/02/03 13:40:20;;;;;;;2.78;1.10;;;;;;;7.84;61.46;99761.66;10470542;28;20489;-64
2022/02/03 13:45:22;;;;;;;0.95;0.80;;;;;;;7.97;60.84;99767.09;10470002;28;20500;-64
2022/02/03 13:50:27;;;;;;;1.20;0.98;;;;;;;7.93;60.25;99765.56;10470509;28;20206;-64
2022/02/03 14:21:27;;;;;;;5.40;3.20;;;;;;;7.82;60.03;99750.50;10467549;28;20127;-64
2022/02/03 14:32:03;;;;;;;2.33;1.40;;;;;;;7.47;60.94;99756.63;10429165;28;1173563;-65
2022/02/03 14:37:23;;;;;;;1.55;1.13;;;;;;;7.24;61.85;99777.75;10469936;28;20453;-65
2022/02/03 14:42:29;;;;;;;1.80;1.17;;;;;;;7.27;62.09;99761.13;10470321;28;20115;-64
2022/02/03 14:47:32;;;;;;;1.33;1.10;;;;;;;7.07;62.65;99759.50;10470013;28;20497;-65
2022/02/03 14:52:54;;;;;;;1.05;0.90;;;;;;;7.15;62.81;99749.56;10469308;28;20106;-64
2022/02/03 15:03:03;;;;;;;2.75;1.10;;;;;;;7.07;62.57;99738.69;10469089;28;19935;-65
2022/02/03 15:08:14;;;;;;;2.13;1.00;;;;;;;7.10;62.41;99741.16;10470393;28;20048;-65
2022/02/03 15:13:41;;;;;;;1.92;1.20;;;;;;;7.04;62.49;99731.88;10474022;28;20066;-65
2022/02/03 15:18:42;;;;;;;2.15;1.35;;;;;;;7.03;62.49;99719.81;10469978;28;20141;-65
2022/02/03 15:23:44;;;;;;;2.42;1.27;;;;;;;7.09;62.26;99709.09;10484316;28;20380;-65
2022/02/03 15:28:46;;;;;;;1.60;1.20;;;;;;;7.14;61.87;99711.50;10466782;28;20060;-65
2022/02/03 15:33:56;;;;;;;1.85;1.27;;;;;;;7.19;61.82;99699.09;10466609;28;20056;-65
2022/02/03 15:38:58;;;;;;;2.27;1.30;;;;;;;7.01;61.91;99700.84;10468003;28;20564;-66
2022/02/03 15:44:01;;;;;;;1.88;1.35;;;;;;;7.00;62.15;99709.53;10468600;28;20143;-66
2022/02/03 15:49:18;;;;;;;4.30;1.77;;;;;;;7.12;61.96;99708.13;10466570;28;20146;-66
2022/02/03 16:21:16;;;;;;;3.08;1.95;;;;;;;7.04;61.35;99699.84;10465447;28;20059;-65
2022/02/03 16:40:56;;;;;;;3.70;2.20;;;;;;;6.96;61.06;99700.22;10465438;28;20489;-66
2022/02/03 16:52:56;;;;;;;4.60;2.72;;;;;;;7.02;60.71;99696.50;10436885;28;20044;-65
2022/02/03 16:57:58;;;;;;;4.45;3.03;;;;;;;6.90;60.25;99703.09;10476535;28;20052;-65
2022/02/03 17:03:00;;;;;;;6.07;3.55;;;;;;;6.89;60.38;99704.03;10466498;28;20045;-66
2022/02/03 17:08:03;;;;;;;4.72;3.13;;;;;;;7.01;60.17;99713.84;10478164;28;20784;-66
2022/02/03 17:13:05;;;;;;;7.00;4.50;;;;;;;7.00;60.09;99704.34;10465946;28;20056;-65
2022/02/03 17:18:06;;;;;;;6.20;3.90;;;;;;;6.91;60.42;99706.56;10467322;28;20098;-66
2022/02/03 17:23:13;;;;;;;5.88;3.50;;;;;;;6.93;60.32;99702.13;10468952;28;20051;-65
2022/02/03 18:27:37;;;;;;;9.50;5.40;;;;;;;6.73;61.12;99700.50;10471558;28;20423;-65
2022/02/03 18:53:28;;;;;;;7.97;5.57;;;;;;;6.61;61.25;99715.81;10471626;28;20045;-65
2022/02/03 19:14:36;;;;;;;7.03;5.13;;;;;;;6.70;61.06;99710.16;10467939;28;20460;-65
2022/02/03 20:02:38;;;;;;;7.10;5.57;;;;;;;6.44;61.58;99690.63;10466728;28;20052;-66
2022/02/03 20:07:48;;;;;;;8.77;6.07;;;;;;;6.52;61.63;99698.91;10466384;28;21071;-66
2022/02/03 20:12:49;;;;;;;8.05;6.20;;;;;;;6.47;61.58;99698.25;10466661;28;20123;-66
2022/02/03 20:17:51;;;;;;;9.00;6.20;;;;;;;6.41;61.65;99689.94;10467396;28;20329;-66
2022/02/03 20:22:53;;;;;;;8.07;6.40;;;;;;;6.26;62.07;99694.94;10466205;28;20132;-66
2022/02/03 20:27:55;;;;;;;9.40;5.85;;;;;;;6.38;61.80;99690.06;10474166;28;20083;-66
2022/02/03 20:32:56;;;;;;;9.32;6.40;;;;;;;6.34;61.94;99686.78;10465443;28;20053;-66
2022/02/03 20:37:58;;;;;;;8.18;6.78;;;;;;;6.35;62.09;99684.09;10466880;28;20078;-66
2022/02/03 20:43:00;;;;;;;8.82;6.65;;;;;;;6.26;62.28;99681.09;10467058;28;20436;-65
2022/02/03 20:48:03;;;;;;;9.18;7.18;;;;;;;6.27;62.17;99672.38;10468400;28;20059;-65
2022/02/03 20:53:05;;;;;;;9.80;6.60;;;;;;;6.30;62.21;99673.09;10469078;28;20472;-65
2022/02/03 20:58:11;;;;;;;7.95;6.20;;;;;;;6.34;62.15;99664.25;10471191;28;20045;-65
2022/02/03 21:08:32;;;;;;;12.77;9.25;;;;;;;6.43;62.16;99665.53;10474742;28;20062;-65
2022/02/03 21:13:34;;;;;;;14.50;10.70;;;;;;;6.34;62.06;99669.44;10471974;28;20115;-66
2022/02/03 21:18:40;;;;;;;9.95;7.50;;;;;;;6.29;62.42;99657.56;10473164;28;20052;-66
2022/02/03 21:23:42;;;;;;;8.50;6.68;;;;;;;6.22;62.57;99664.78;10472496;28;20063;-66
2022/02/03 21:28:48;;;;;;;10.70;7.53;;;;;;;6.11;62.85;99659.22;10471418;28;20052;-65
2022/02/03 21:33:54;;;;;;;8.48;6.68;;;;;;;6.11;63.03;99658.38;10472803;28;20052;-66
2022/02/03 21:38:56;;;;;;;8.05;6.45;;;;;;;6.11;62.73;99654.03;10468766;28;20079;-65
2022/02/03 21:43:57;;;;;;;8.80;6.70;;;;;;;6.16;62.81;99662.47;10472209;28;20048;-65
2022/02/03 21:48:59;;;;;;;9.25;6.35;;;;;;;6.20;62.50;99668.34;10471872;28;20092;-65
2022/02/03 21:54:03;;;;;;;8.60;6.72;;;;;;;6.18;62.65;99667.59;10472382;28;20131;-65
2022/02/03 21:59:08;;;;;;;9.25;6.53;;;;;;;6.11;62.76;99668.75;10471360;28;20211;-65
2022/02/03 22:04:10;;;;;;;10.02;6.95;;;;;;;6.22;62.78;99676.91;10471422;28;20155;-65
2022/02/03 22:09:12;;;;;;;10.15;6.55;;;;;;;6.20;62.69;99678.75;10471126;28;20052;-65
2022/02/03 22:14:14;;;;;;;9.40;6.95;;;;;;;6.37;62.45;99678.00;10471847;28;20596;-65
2022/02/03 22:19:15;;;;;;;10.57;7.18;;;;;;;6.34;62.31;99687.63;10470307;28;20508;-66
2022/02/03 22:24:26;;;;;;;8.32;6.78;;;;;;;6.18;62.59;99683.16;10471582;28;20052;-65
2022/02/03 22:42:19;;;;;;;9.55;6.95;;;;;;;6.23;62.65;99687.22;10466385;28;20082;-70
2022/02/03 22:45:57;;;;;;;10.82;7.22;;;;;;;6.33;62.59;99691.13;10466360;28;20036;-67
2022/02/03 22:51:01;;;;;;;10.55;7.25;;;;;;;6.25;62.66;99693.22;10481675;28;20503;-67
2022/02/03 22:56:09;;;;;;;9.75;6.55;;;;;;;6.22;62.90;99695.09;10468492;28;20044;-67
2022/02/03 23:01:13;;;;;;;9.32;6.85;;;;;;;6.15;63.07;99684.13;10464557;28;20044;-67
2022/02/03 23:06:15;;;;;;;10.85;6.78;;;;;;;6.20;63.05;99684.78;10469825;28;20044;-67
2022/02/03 23:26:42;;;;;;;9.07;7.07;;;;;;;6.08;63.34;99695.69;10474926;28;20802;-67
2022/02/03 23:36:52;;;;;;;14.48;8.35;;;;;;;6.04;63.70;99696.75;10468463;28;20079;-67
